createdAt,value
2016-08-14T00:00:01.642Z,74.05
2016-08-14T00:01:01.098Z,74.44
2016-08-14T00:02:00.858Z,74.92
2016-08-14T00:03:01.318Z,74.63
2016-08-14T00:04:01.275Z,74.82
2016-08-14T00:05:01.483Z,75.11
2016-08-14T00:06:01.384Z,75.11
2016-08-14T00:07:01.144Z,74.44
2016-08-14T00:08:01.094Z,74.82
2016-08-14T00:09:01.242Z,74.82
2016-08-14T00:10:01.005Z,75.21
2016-08-14T00:11:00.450Z,75.4
2016-08-14T00:12:00.961Z,74.92
2016-08-14T00:13:00.861Z,75.31
2016-08-14T00:14:00.115Z,75.4
2016-08-14T00:15:00.779Z,75.49
2016-08-14T00:16:00.732Z,74.82
2016-08-14T00:17:00.200Z,74.73
2016-08-14T00:18:00.661Z,74.63
2016-08-14T00:18:59.898Z,75.31
2016-08-14T00:20:00.549Z,75.02
2016-08-14T00:20:59.812Z,75.31
2016-08-14T00:22:00.661Z,75.21
2016-08-14T00:23:00.430Z,75.49
2016-08-14T00:23:59.683Z,75.98
2016-08-14T00:25:00.369Z,75.65
2016-08-14T00:26:00.702Z,75.88
2016-08-14T00:27:00.241Z,75.69
2016-08-14T00:28:00.413Z,75.69
2016-08-14T00:29:00.147Z,75.69
2016-08-14T00:30:00.308Z,75.65
2016-08-14T00:31:00.069Z,75.75
2016-08-14T00:32:00.046Z,75.98
2016-08-14T00:32:59.980Z,76.17
2016-08-14T00:33:59.943Z,75.88
2016-08-14T00:34:59.183Z,75.21
2016-08-14T00:36:00.054Z,75.98
2016-08-14T00:36:59.797Z,75.88
2016-08-14T00:37:59.757Z,75.69
2016-08-14T00:38:59.917Z,75.69
2016-08-14T00:39:59.668Z,76.07
2016-08-14T00:40:59.633Z,75.98
2016-08-14T00:41:59.782Z,75.94
2016-08-14T00:42:59.530Z,76.32
2016-08-14T00:43:59.498Z,76.14
2016-08-14T00:44:59.638Z,76.81
2016-08-14T00:45:59.392Z,76.81
2016-08-14T00:46:59.359Z,76.61
2016-08-14T00:47:59.322Z,76.71
2016-08-14T00:48:59.266Z,77
2016-08-14T00:49:59.282Z,76.71
2016-08-14T00:50:59.385Z,76.61
2016-08-14T00:51:59.142Z,77.38
2016-08-14T00:52:59.298Z,77.53
2016-08-14T00:53:59.054Z,77.73
2016-08-14T00:54:59.013Z,77.83
2016-08-14T00:55:58.467Z,77.92
2016-08-14T00:56:58.913Z,78.21
2016-08-14T00:57:58.179Z,78.11
2016-08-14T00:58:58.833Z,78.17
2016-08-14T00:59:58.779Z,78.45
2016-08-14T01:00:58.736Z,78.55
2016-08-14T01:01:58.891Z,78.84
2016-08-14T01:02:58.858Z,78.84
2016-08-14T01:03:58.605Z,78.75
2016-08-14T01:04:58.560Z,78.94
2016-08-14T01:05:58.507Z,78.94
2016-08-14T01:06:58.487Z,79.57
2016-08-14T01:07:57.725Z,79.32
2016-08-14T01:08:58.368Z,79.32
2016-08-14T01:09:58.329Z,79.03
2016-08-14T01:10:58.290Z,79.22
2016-08-14T01:11:58.242Z,79.32
2016-08-14T01:12:58.389Z,78.94
2016-08-14T01:13:58.151Z,78.84
2016-08-14T01:14:58.305Z,78.84
2016-08-14T01:15:58.056Z,78.75
2016-08-14T01:16:58.010Z,78.84
2016-08-14T01:17:57.975Z,78.94
2016-08-14T01:18:57.928Z,79.03
2016-08-14T01:19:58.288Z,78.75
2016-08-14T01:20:57.830Z,78.45
2016-08-14T01:21:57.804Z,79.22
2016-08-14T01:22:57.450Z,78.59
2016-08-14T01:23:57.900Z,78.69
2016-08-14T01:24:57.641Z,79.03
2016-08-14T01:25:57.815Z,79.13
2016-08-14T01:26:57.761Z,78.98
2016-08-14T01:27:57.506Z,78.59
2016-08-14T01:28:57.675Z,78.4
2016-08-14T01:29:57.420Z,78.94
2016-08-14T01:30:57.380Z,79.03
2016-08-14T01:31:56.837Z,78.94
2016-08-14T01:32:57.301Z,78.94
2016-08-14T01:33:57.260Z,79.03
2016-08-14T01:34:57.230Z,78.94
2016-08-14T01:35:56.470Z,78.94
2016-08-14T01:36:57.111Z,79.32
2016-08-14T01:37:57.060Z,79.22
2016-08-14T01:38:57.020Z,79.71
2016-08-14T01:39:56.980Z,79.76
2016-08-14T01:40:56.928Z,79.86
2016-08-14T01:41:56.884Z,80.15
2016-08-14T01:42:57.040Z,79.57
2016-08-14T01:43:56.098Z,79.67
2016-08-14T01:44:56.771Z,80.24
2016-08-14T01:45:56.710Z,80.15
2016-08-14T01:46:56.859Z,79.86
2016-08-14T01:47:56.809Z,79.76
2016-08-14T01:48:56.598Z,80.34
2016-08-14T01:49:56.519Z,80.43
2016-08-14T01:50:56.476Z,80.53
2016-08-14T01:51:56.429Z,80.53
2016-08-14T01:52:56.386Z,80.15
2016-08-14T01:53:56.339Z,79.76
2016-08-14T01:54:56.299Z,79.71
2016-08-14T01:55:56.270Z,79.32
2016-08-14T01:56:56.410Z,79.22
2016-08-14T01:57:55.461Z,79.42
2016-08-14T01:58:56.129Z,79.99
2016-08-14T01:59:56.078Z,79.71
2016-08-14T02:00:56.024Z,79.86
2016-08-14T02:01:56.391Z,79.9
2016-08-14T02:02:55.931Z,79.42
2016-08-14T02:03:55.890Z,79.8
2016-08-14T02:04:55.838Z,79.42
2016-08-14T02:05:55.798Z,79.9
2016-08-14T02:06:55.761Z,79.8
2016-08-14T02:07:55.711Z,79.67
2016-08-14T02:08:55.663Z,80.05
2016-08-14T02:09:55.623Z,79.99
2016-08-14T02:10:55.581Z,79.38
2016-08-14T02:11:55.532Z,79.96
2016-08-14T02:12:55.491Z,79.76
2016-08-14T02:13:54.742Z,79.86
2016-08-14T02:14:54.689Z,80.09
2016-08-14T02:15:54.648Z,79.9
2016-08-14T02:16:55.323Z,79.9
2016-08-14T02:17:55.263Z,80.28
2016-08-14T02:18:55.210Z,79.42
2016-08-14T02:19:55.171Z,79.52
2016-08-14T02:20:55.350Z,80.09
2016-08-14T02:21:55.273Z,79.8
2016-08-14T02:22:54.438Z,79.8
2016-08-14T02:23:55.193Z,79.9
2016-08-14T02:24:55.003Z,79.71
2016-08-14T02:25:54.905Z,79.99
2016-08-14T02:26:54.873Z,79.9
2016-08-14T02:27:54.121Z,79.67
2016-08-14T02:28:54.769Z,80.15
2016-08-14T02:29:54.722Z,80.43
2016-08-14T02:30:54.916Z,80.34
2016-08-14T02:31:54.638Z,80.15
2016-08-14T02:32:54.583Z,80.43
2016-08-14T02:33:54.553Z,80.53
2016-08-14T02:34:54.493Z,80.43
2016-08-14T02:35:54.454Z,79.86
2016-08-14T02:36:54.414Z,79.96
2016-08-14T02:37:54.394Z,79.76
2016-08-14T02:38:54.313Z,80.34
2016-08-14T02:39:54.253Z,80.43
2016-08-14T02:40:54.423Z,80.24
2016-08-14T02:41:54.171Z,80.53
2016-08-14T02:42:54.133Z,80.63
2016-08-14T02:43:54.280Z,81.1
2016-08-14T02:44:54.242Z,80.91
2016-08-14T02:45:53.992Z,80.82
2016-08-14T02:46:53.939Z,81.3
2016-08-14T02:47:53.903Z,81.16
2016-08-14T02:48:53.853Z,81.59
2016-08-14T02:49:53.813Z,81.3
2016-08-14T02:50:53.773Z,81.26
2016-08-14T02:51:53.712Z,81.4
2016-08-14T02:52:53.670Z,81.4
2016-08-14T02:53:53.621Z,81.2
2016-08-14T02:54:53.582Z,81.35
2016-08-14T02:55:53.946Z,81.49
2016-08-14T02:56:53.489Z,80.91
2016-08-14T02:57:53.439Z,80.91
2016-08-14T02:58:53.393Z,81.01
2016-08-14T02:59:53.764Z,81.01
2016-08-14T03:00:53.312Z,80.63
2016-08-14T03:01:53.262Z,81.49
2016-08-14T03:02:53.258Z,81.35
2016-08-14T03:03:53.182Z,81.26
2016-08-14T03:04:53.112Z,81.35
2016-08-14T03:05:53.082Z,81.35
2016-08-14T03:06:53.031Z,81.35
2016-08-14T03:07:52.979Z,81.26
2016-08-14T03:08:52.953Z,81.3
2016-08-14T03:09:53.100Z,81.2
2016-08-14T03:10:52.851Z,81.1
2016-08-14T03:11:53.006Z,81.01
2016-08-14T03:12:52.751Z,81.01
2016-08-14T03:13:52.711Z,80.63
2016-08-14T03:14:52.672Z,80.91
2016-08-14T03:15:52.629Z,80.91
2016-08-14T03:16:52.578Z,80.53
2016-08-14T03:17:52.535Z,80.63
2016-08-14T03:18:52.476Z,80.91
2016-08-14T03:19:52.531Z,80.43
2016-08-14T03:20:52.802Z,80.24
2016-08-14T03:21:52.352Z,80.63
2016-08-14T03:22:52.517Z,79.76
2016-08-14T03:23:52.662Z,80.05
2016-08-14T03:24:52.258Z,80.15
2016-08-14T03:25:52.162Z,80.15
2016-08-14T03:26:52.132Z,79.96
2016-08-14T03:27:52.074Z,79.86
2016-08-14T03:28:52.040Z,79.86
2016-08-14T03:29:51.991Z,79.19
2016-08-14T03:30:51.939Z,79.67
2016-08-14T03:31:51.902Z,80.15
2016-08-14T03:32:51.851Z,80.53
2016-08-14T03:33:51.796Z,80.24
2016-08-14T03:34:51.788Z,80.43
2016-08-14T03:35:51.702Z,80.63
2016-08-14T03:36:51.876Z,80.53
2016-08-14T03:37:51.621Z,80.82
2016-08-14T03:38:51.580Z,80.24
2016-08-14T03:39:51.525Z,80.53
2016-08-14T03:40:51.492Z,80.43
2016-08-14T03:41:51.437Z,80.34
2016-08-14T03:42:51.387Z,80.24
2016-08-14T03:43:51.342Z,80.63
2016-08-14T03:44:51.312Z,79.67
2016-08-14T03:45:51.264Z,80.43
2016-08-14T03:46:51.210Z,80.82
2016-08-14T03:47:51.173Z,80.53
2016-08-14T03:48:51.122Z,80.82
2016-08-14T03:49:51.285Z,80.43
2016-08-14T03:50:51.033Z,80.63
2016-08-14T03:51:50.977Z,80.53
2016-08-14T03:52:50.941Z,80.43
2016-08-14T03:53:50.191Z,80.24
2016-08-14T03:54:50.862Z,80.34
2016-08-14T03:55:51.036Z,80.24
2016-08-14T03:56:50.953Z,80.53
2016-08-14T03:57:50.784Z,80.63
2016-08-14T03:58:50.868Z,80.73
2016-08-14T03:59:50.620Z,80.82
2016-08-14T04:00:50.573Z,81.01
2016-08-14T04:01:50.522Z,80.43
2016-08-14T04:02:50.491Z,80.53
2016-08-14T04:03:50.646Z,80.43
2016-08-14T04:04:50.398Z,80.73
2016-08-14T04:05:50.362Z,80.43
2016-08-14T04:06:50.516Z,80.63
2016-08-14T04:07:50.263Z,79.76
2016-08-14T04:08:50.216Z,79.96
2016-08-14T04:09:50.173Z,80.15
2016-08-14T04:10:50.333Z,80.24
2016-08-14T04:11:50.083Z,79.67
2016-08-14T04:12:50.225Z,79.86
2016-08-14T04:13:50.192Z,79.96
2016-08-14T04:14:49.449Z,79.86
2016-08-14T04:15:49.892Z,79.96
2016-08-14T04:16:49.855Z,80.05
2016-08-14T04:17:49.795Z,80.53
2016-08-14T04:18:49.769Z,80.53
2016-08-14T04:19:49.717Z,80.87
2016-08-14T04:20:49.668Z,81.45
2016-08-14T04:21:49.831Z,81.64
2016-08-14T04:22:49.583Z,81.45
2016-08-14T04:23:49.520Z,81.45
2016-08-14T04:24:48.778Z,81.93
2016-08-14T04:25:49.444Z,82.21
2016-08-14T04:26:49.391Z,82.46
2016-08-14T04:27:49.554Z,82.41
2016-08-14T04:28:49.299Z,82.31
2016-08-14T04:29:50.253Z,82.18
2016-08-14T04:30:49.214Z,82.6
2016-08-14T04:31:49.164Z,81.74
2016-08-14T04:32:49.119Z,81.93
2016-08-14T04:33:49.073Z,82.12
2016-08-14T04:34:49.035Z,82.12
2016-08-14T04:35:49.063Z,82.12
2016-08-14T04:36:48.940Z,81.93
2016-08-14T04:37:48.904Z,81.93
2016-08-14T04:38:49.042Z,82.21
2016-08-14T04:39:48.803Z,82.03
2016-08-14T04:40:48.752Z,82.51
2016-08-14T04:41:48.719Z,82.21
2016-08-14T04:42:48.669Z,82.7
2016-08-14T04:43:48.611Z,82.31
2016-08-14T04:44:48.562Z,81.93
2016-08-14T04:45:48.530Z,82.21
2016-08-14T04:46:48.483Z,82.12
2016-08-14T04:47:48.434Z,82.03
2016-08-14T04:48:48.592Z,82.21
2016-08-14T04:49:48.338Z,82.51
2016-08-14T04:50:47.801Z,82.21
2016-08-14T04:51:47.547Z,82.51
2016-08-14T04:52:48.201Z,82.21
2016-08-14T04:53:48.163Z,82.41
2016-08-14T04:54:48.123Z,82.41
2016-08-14T04:55:48.061Z,82.79
2016-08-14T04:56:48.021Z,82.7
2016-08-14T04:57:47.273Z,82.21
2016-08-14T04:58:49.131Z,82.51
2016-08-14T04:59:47.881Z,82.51
2016-08-14T05:00:47.832Z,82.79
2016-08-14T05:01:48.402Z,82.31
2016-08-14T05:02:47.751Z,82.98
2016-08-14T05:03:47.903Z,82.89
2016-08-14T05:04:47.652Z,82.7
2016-08-14T05:05:47.607Z,82.89
2016-08-14T05:06:47.566Z,82.89
2016-08-14T05:07:47.532Z,82.89
2016-08-14T05:08:47.472Z,82.51
2016-08-14T05:09:47.424Z,82.51
2016-08-14T05:10:47.379Z,82.12
2016-08-14T05:11:47.553Z,82.51
2016-08-14T05:12:47.485Z,82.12
2016-08-14T05:13:47.452Z,82.41
2016-08-14T05:14:47.403Z,82.31
2016-08-14T05:15:47.145Z,82.21
2016-08-14T05:16:47.303Z,82.51
2016-08-14T05:17:47.059Z,81.93
2016-08-14T05:18:47.034Z,82.03
2016-08-14T05:19:46.963Z,82.26
2016-08-14T05:20:46.917Z,81.3
2016-08-14T05:21:46.877Z,81.49
2016-08-14T05:22:46.832Z,81.4
2016-08-14T05:23:46.803Z,81.4
2016-08-14T05:24:46.042Z,81.3
2016-08-14T05:25:46.893Z,81.78
2016-08-14T05:26:46.659Z,81.49
2016-08-14T05:27:46.807Z,81.1
2016-08-14T05:28:46.610Z,81.49
2016-08-14T05:29:46.515Z,81.59
2016-08-14T05:30:45.771Z,81.87
2016-08-14T05:31:46.432Z,82.07
2016-08-14T05:32:46.393Z,82.21
2016-08-14T05:33:46.323Z,82.21
2016-08-14T05:34:46.282Z,82.74
2016-08-14T05:35:46.434Z,82.51
2016-08-14T05:36:46.201Z,82.51
2016-08-14T05:37:46.142Z,82.51
2016-08-14T05:38:46.103Z,82.51
2016-08-14T05:39:46.062Z,82.51
2016-08-14T05:40:46.004Z,82.16
2016-08-14T05:41:45.962Z,82.16
2016-08-14T05:42:45.928Z,81.49
2016-08-14T05:43:45.877Z,81.87
2016-08-14T05:44:45.824Z,82.16
2016-08-14T05:45:45.782Z,81.87
2016-08-14T05:46:45.752Z,81.87
2016-08-14T05:47:45.693Z,82.16
2016-08-14T05:48:45.852Z,82.26
2016-08-14T05:49:45.599Z,81.59
2016-08-14T05:50:45.552Z,81.3
2016-08-14T05:51:45.502Z,81.49
2016-08-14T05:52:45.467Z,81.49
2016-08-14T05:53:45.421Z,81.34
2016-08-14T05:54:45.373Z,81.24
2016-08-14T05:55:45.332Z,81.34
2016-08-14T05:56:45.285Z,81.15
2016-08-14T05:57:45.243Z,80.66
2016-08-14T05:58:45.194Z,81.05
2016-08-14T05:59:45.154Z,81.05
2016-08-14T06:00:45.103Z,80.09
2016-08-14T06:01:45.053Z,80.47
2016-08-14T06:02:45.013Z,80.42
2016-08-14T06:03:44.974Z,80.32
2016-08-14T06:04:44.951Z,80.51
2016-08-14T06:05:45.083Z,80.61
2016-08-14T06:06:44.913Z,80.09
2016-08-14T06:07:44.082Z,81.05
2016-08-14T06:08:44.741Z,80.86
2016-08-14T06:09:44.693Z,81.05
2016-08-14T06:10:44.644Z,81.05
2016-08-14T06:11:44.611Z,80.76
2016-08-14T06:12:44.549Z,80.86
2016-08-14T06:13:44.516Z,80.66
2016-08-14T06:14:43.777Z,80.38
2016-08-14T06:15:44.423Z,80.47
2016-08-14T06:16:44.382Z,80.22
2016-08-14T06:17:44.530Z,79.8
2016-08-14T06:18:44.294Z,79.94
2016-08-14T06:19:44.241Z,80.22
2016-08-14T06:20:44.210Z,80.13
2016-08-14T06:21:44.394Z,79.84
2016-08-14T06:22:44.113Z,80.04
2016-08-14T06:23:44.063Z,79.94
2016-08-14T06:24:44.027Z,80.04
2016-08-14T06:25:43.983Z,79.75
2016-08-14T06:26:43.940Z,79.84
2016-08-14T06:27:43.881Z,80.04
2016-08-14T06:28:43.833Z,79.94
2016-08-14T06:29:43.814Z,79.84
2016-08-14T06:30:43.950Z,79.94
2016-08-14T06:31:43.716Z,79.84
2016-08-14T06:32:43.859Z,79.65
2016-08-14T06:33:43.621Z,79.46
2016-08-14T06:34:43.783Z,79.5
2016-08-14T06:35:43.523Z,78.78
2016-08-14T06:36:43.486Z,79.02
2016-08-14T06:37:43.441Z,78.92
2016-08-14T06:38:43.398Z,79.11
2016-08-14T06:39:43.350Z,78.53
2016-08-14T06:40:43.300Z,78.63
2016-08-14T06:41:42.560Z,78.34
2016-08-14T06:42:43.211Z,78.06
2016-08-14T06:43:43.173Z,77.58
2016-08-14T06:44:43.190Z,77.76
2016-08-14T06:45:43.304Z,77.96
2016-08-14T06:46:43.032Z,77.67
2016-08-14T06:47:43.215Z,77.29
2016-08-14T06:48:42.963Z,77.29
2016-08-14T06:49:43.182Z,76.71
2016-08-14T06:50:42.886Z,76.94
2016-08-14T06:51:43.028Z,76.94
2016-08-14T06:52:42.791Z,76.65
2016-08-14T06:53:42.724Z,76.75
2016-08-14T06:54:42.683Z,76.36
2016-08-14T06:55:42.858Z,76.46
2016-08-14T06:56:42.601Z,76.56
2016-08-14T06:57:42.761Z,76.46
2016-08-14T06:58:42.492Z,76.26
2016-08-14T06:59:42.669Z,76.07
2016-08-14T07:00:42.434Z,75.98
2016-08-14T07:01:42.410Z,76.31
2016-08-14T07:02:42.324Z,76.31
2016-08-14T07:03:41.597Z,75.98
2016-08-14T07:04:42.242Z,76.46
2016-08-14T07:05:42.405Z,76.65
2016-08-14T07:06:42.141Z,76.65
2016-08-14T07:07:42.113Z,76.75
2016-08-14T07:08:42.052Z,76.17
2016-08-14T07:09:42.034Z,76.56
2016-08-14T07:10:41.271Z,76.46
2016-08-14T07:11:41.931Z,75.88
2016-08-14T07:12:41.880Z,75.88
2016-08-14T07:13:42.052Z,75.49
2016-08-14T07:14:41.793Z,75.73
2016-08-14T07:15:42.161Z,75.54
2016-08-14T07:16:41.705Z,75.63
2016-08-14T07:17:41.691Z,75.54
2016-08-14T07:18:41.842Z,75.15
2016-08-14T07:19:41.576Z,74.86
2016-08-14T07:20:41.533Z,74.22
2016-08-14T07:21:41.499Z,74.32
2016-08-14T07:22:41.641Z,74.03
2016-08-14T07:23:41.400Z,73.84
2016-08-14T07:24:41.357Z,73.84
2016-08-14T07:25:41.313Z,73.84
2016-08-14T07:26:41.267Z,73.84
2016-08-14T07:27:41.240Z,73.26
2016-08-14T07:28:40.480Z,73.36
2016-08-14T07:29:41.141Z,73.74
2016-08-14T07:30:41.090Z,73.74
2016-08-14T07:31:40.363Z,74.22
2016-08-14T07:32:41.011Z,74.13
2016-08-14T07:33:40.959Z,74.09
2016-08-14T07:34:40.924Z,74.86
2016-08-14T07:35:41.083Z,74.67
2016-08-14T07:36:40.839Z,74.48
2016-08-14T07:37:40.805Z,74.29
2016-08-14T07:38:40.773Z,73.99
2016-08-14T07:39:40.013Z,74.03
2016-08-14T07:40:40.664Z,74.13
2016-08-14T07:41:39.962Z,74.13
2016-08-14T07:42:40.580Z,74.13
2016-08-14T07:43:39.911Z,73.94
2016-08-14T07:44:40.477Z,73.16
2016-08-14T07:45:40.862Z,72.78
2016-08-14T07:46:39.910Z,72.49
2016-08-14T07:47:39.684Z,72.39
2016-08-14T07:48:40.519Z,72.39
2016-08-14T07:49:40.279Z,72.49
2016-08-14T07:50:40.230Z,72.97
2016-08-14T07:51:40.182Z,73.16
2016-08-14T07:52:40.151Z,72.88
2016-08-14T07:53:40.090Z,72.78
2016-08-14T07:54:40.050Z,73.13
2016-08-14T07:55:39.303Z,72.68
2016-08-14T07:56:39.994Z,72.97
2016-08-14T07:57:39.919Z,72.39
2016-08-14T07:58:40.078Z,72.59
2016-08-14T07:59:39.830Z,71.91
2016-08-14T08:00:39.089Z,71.72
2016-08-14T08:01:39.758Z,71.34
2016-08-14T08:02:39.696Z,71.08
2016-08-14T08:03:39.659Z,70.89
2016-08-14T08:04:39.609Z,70.5
2016-08-14T08:05:39.573Z,71.47
2016-08-14T08:06:39.519Z,70.31
2016-08-14T08:07:39.488Z,70.7
2016-08-14T08:08:39.449Z,70.41
2016-08-14T08:09:39.795Z,70.5
2016-08-14T08:10:38.646Z,70.6
2016-08-14T08:11:39.713Z,70.7
2016-08-14T08:12:39.468Z,70.5
2016-08-14T08:13:39.220Z,70.79
2016-08-14T08:14:39.178Z,70.79
2016-08-14T08:15:39.129Z,70.6
2016-08-14T08:16:39.302Z,70.89
2016-08-14T08:17:38.338Z,70.7
2016-08-14T08:18:38.292Z,70.7
2016-08-14T08:19:38.971Z,70.5
2016-08-14T08:20:38.205Z,70.83
2016-08-14T08:21:39.076Z,70.7
2016-08-14T08:22:38.828Z,71.47
2016-08-14T08:23:38.296Z,70.79
2016-08-14T08:24:38.738Z,70.98
2016-08-14T08:25:38.709Z,71.18
2016-08-14T08:26:38.663Z,71.08
2016-08-14T08:27:38.610Z,71.18
2016-08-14T08:28:38.777Z,71.08
2016-08-14T08:29:38.527Z,71.08
2016-08-14T08:30:38.490Z,71.28
2016-08-14T08:31:38.440Z,71.28
2016-08-14T08:32:38.417Z,71.08
2016-08-14T08:33:38.349Z,71.37
2016-08-14T08:34:37.615Z,71.37
2016-08-14T08:35:38.262Z,70.98
2016-08-14T08:36:38.230Z,70.79
2016-08-14T08:37:38.182Z,70.02
2016-08-14T08:38:38.168Z,70.02
2016-08-14T08:39:38.096Z,68.96
2016-08-14T08:40:38.058Z,69.09
2016-08-14T08:41:38.020Z,68.52
2016-08-14T08:42:37.466Z,68.61
2016-08-14T08:43:37.212Z,67.74
2016-08-14T08:44:38.068Z,67.65
2016-08-14T08:45:38.019Z,67.36
2016-08-14T08:46:37.779Z,67.07
2016-08-14T08:47:37.740Z,66.49
2016-08-14T08:48:36.997Z,66.2
2016-08-14T08:49:37.661Z,66.72
2016-08-14T08:50:37.621Z,66.14
2016-08-14T08:51:37.574Z,66.04
2016-08-14T08:52:37.522Z,66.24
2016-08-14T08:53:37.486Z,66.24
2016-08-14T08:54:37.440Z,66.04
2016-08-14T08:55:37.597Z,66.82
2016-08-14T08:56:36.647Z,66.82
2016-08-14T08:57:37.321Z,66.91
2016-08-14T08:58:37.269Z,66.14
2016-08-14T08:59:37.438Z,66.14
2016-08-14T09:00:37.194Z,65.95
2016-08-14T09:01:37.160Z,65.01
2016-08-14T09:02:37.314Z,64.92
2016-08-14T09:03:36.439Z,64.53
2016-08-14T09:04:37.047Z,64.34
2016-08-14T09:05:36.971Z,64.24
2016-08-14T09:06:36.918Z,64.63
2016-08-14T09:07:36.881Z,64.72
2016-08-14T09:08:36.839Z,64.53
2016-08-14T09:09:36.800Z,64.53
2016-08-14T09:10:36.753Z,64.15
2016-08-14T09:11:36.720Z,64.53
2016-08-14T09:12:36.682Z,64.53
2016-08-14T09:13:36.634Z,64.53
2016-08-14T09:14:36.598Z,64.72
2016-08-14T09:15:36.536Z,64.24
2016-08-14T09:16:36.506Z,64.79
2016-08-14T09:17:35.761Z,64.53
2016-08-14T09:18:36.614Z,64.21
2016-08-14T09:19:36.358Z,63.95
2016-08-14T09:20:35.648Z,63.95
2016-08-14T09:21:36.493Z,63.73
2016-08-14T09:22:36.253Z,64.24
2016-08-14T09:23:36.211Z,64.59
2016-08-14T09:24:36.166Z,64.21
2016-08-14T09:25:36.109Z,64.98
2016-08-14T09:26:36.070Z,65.66
2016-08-14T09:27:36.421Z,65.66
2016-08-14T09:28:35.979Z,66.14
2016-08-14T09:29:35.937Z,66.52
2016-08-14T09:30:35.203Z,66.52
2016-08-14T09:31:35.871Z,66.52
2016-08-14T09:32:35.823Z,66.52
2016-08-14T09:33:35.792Z,66.62
2016-08-14T09:34:35.737Z,66.43
2016-08-14T09:35:35.690Z,66.72
2016-08-14T09:36:35.634Z,66.43
2016-08-14T09:37:35.597Z,66.43
2016-08-14T09:38:35.558Z,66.43
2016-08-14T09:39:35.518Z,65.95
2016-08-14T09:40:35.471Z,66.72
2016-08-14T09:41:35.437Z,66.33
2016-08-14T09:42:35.384Z,66.08
2016-08-14T09:43:35.337Z,66.46
2016-08-14T09:44:35.298Z,66.08
2016-08-14T09:45:35.461Z,65.78
2016-08-14T09:46:35.206Z,65.78
2016-08-14T09:47:35.179Z,65.3
2016-08-14T09:48:35.126Z,65.01
2016-08-14T09:49:35.086Z,65.05
2016-08-14T09:50:34.340Z,64.47
2016-08-14T09:51:35.007Z,64.63
2016-08-14T09:52:34.468Z,64.86
2016-08-14T09:53:34.928Z,64.92
2016-08-14T09:54:34.878Z,64.82
2016-08-14T09:55:34.840Z,64.63
2016-08-14T09:56:34.787Z,65.05
2016-08-14T09:57:34.746Z,64.66
2016-08-14T09:58:34.699Z,64.47
2016-08-14T09:59:34.650Z,64.56
2016-08-14T10:00:34.829Z,64.47
2016-08-14T10:01:34.776Z,64.18
2016-08-14T10:02:33.850Z,64.18
2016-08-14T10:03:34.494Z,63.79
2016-08-14T10:04:33.794Z,63.7
2016-08-14T10:05:34.415Z,63.89
2016-08-14T10:06:33.664Z,63.89
2016-08-14T10:07:34.327Z,63.79
2016-08-14T10:08:34.274Z,63.6
2016-08-14T10:09:34.237Z,63.6
2016-08-14T10:10:34.203Z,63.4
2016-08-14T10:11:34.396Z,63.21
